Terminal Aerodrome Forecast
Issued by NWS

Home | Current Version | Previous Version | Text Only | Print | Product List | Glossary On
Versions: 1 2 3 4 5 6 7 8 9 10 11 12 13 14 15 16 17 18 19 20 21 22 23 24 25 26 27 28 29 30 31 32 33 34 35 36 37 38 39 40 41 42 43 44 45 46 47 48 49 50
000
FTUS45 KBOU 221120
TAFBJC
TAF
KBJC 221120Z 2212/2312 28016G24KT P6SM SCT120 BKN200
     FM221400 30010KT P6SM SCT120
     FM221700 02013G20KT P6SM SCT090 BKN200
     FM222200 06013G20KT P6SM SCT090 BKN200 PROB30 2222/2303
      VRB15G30KT -TSRA BKN060CB
     FM230300 04010KT P6SM VCSH BKN060 BKN090
     FM230600 02010KT P6SM VCSH BKN025 OVC040
     FM230800 02013KT P6SM VCSH BKN015 OVC030=

USA.gov is the U.S. government's official web portal to all federal, state and local government web resources and services.